createdAt,value
2023-04-16T00:00:24.314Z,95.06
2023-04-16T00:03:28.050Z,94.97
2023-04-16T00:06:03.926Z,94.81
2023-04-16T00:08:41.113Z,94.95
2023-04-16T00:11:16.613Z,94.70
2023-04-16T00:14:00.696Z,94.60
2023-04-16T00:16:36.978Z,94.48
2023-04-16T00:19:11.512Z,94.46
2023-04-16T00:21:44.342Z,94.46
2023-04-16T00:24:19.868Z,94.27
2023-04-16T00:26:54.544Z,94.11
2023-04-16T00:29:28.934Z,94.13
2023-04-16T00:32:01.477Z,94.03
2023-04-16T00:34:34.353Z,93.91
2023-04-16T00:37:07.496Z,94.00
2023-04-16T00:39:40.185Z,93.99
2023-04-16T00:42:13.169Z,93.97
2023-04-16T00:44:45.899Z,94.12
2023-04-16T00:47:18.687Z,94.29
2023-04-16T00:49:53.706Z,94.21
2023-04-16T00:52:29.201Z,94.34
2023-04-16T00:55:02.442Z,94.29
2023-04-16T00:57:35.658Z,94.55
2023-04-16T01:00:10.099Z,94.81
2023-04-16T01:02:42.850Z,94.73
2023-04-16T01:05:19.116Z,94.38
2023-04-16T01:08:03.139Z,94.25
2023-04-16T01:10:37.465Z,94.41
2023-04-16T01:13:10.205Z,94.50
2023-04-16T01:15:44.094Z,94.68
2023-04-16T01:18:37.909Z,94.59
2023-04-16T01:21:10.605Z,94.84
2023-04-16T01:23:43.041Z,94.71
2023-04-16T01:26:19.526Z,94.66
2023-04-16T01:28:52.153Z,94.41
2023-04-16T01:31:34.789Z,94.49
2023-04-16T01:34:13.318Z,94.32
2023-04-16T01:36:50.157Z,94.20
2023-04-16T01:39:25.522Z,94.06
2023-04-16T01:42:11.233Z,94.53
2023-04-16T01:44:44.733Z,95.02
2023-04-16T01:47:17.702Z,95.33
2023-04-16T01:49:53.407Z,95.43
2023-04-16T01:52:37.266Z,95.48
2023-04-16T01:55:12.017Z,95.56
2023-04-16T01:57:47.536Z,95.26
2023-04-16T02:00:23.210Z,95.32
2023-04-16T02:02:58.368Z,95.20
2023-04-16T02:05:32.998Z,94.94
2023-04-16T02:08:09.536Z,94.98
2023-04-16T02:10:42.397Z,95.06
2023-04-16T02:13:15.564Z,95.23
2023-04-16T02:15:51.760Z,95.11
2023-04-16T02:18:37.460Z,95.05
2023-04-16T02:21:11.004Z,94.67
2023-04-16T02:23:47.638Z,94.69
2023-04-16T02:26:21.176Z,94.54
2023-04-16T02:28:58.927Z,94.52
2023-04-16T02:31:37.596Z,94.73
2023-04-16T02:34:11.002Z,94.66
2023-04-16T02:36:45.502Z,94.71
2023-04-16T02:39:21.703Z,94.78
2023-04-16T02:41:59.534Z,94.77
2023-04-16T02:44:43.018Z,94.96
2023-04-16T02:47:18.789Z,95.09
2023-04-16T02:49:51.486Z,95.16
2023-04-16T02:52:23.746Z,94.91
2023-04-16T02:54:58.921Z,95.22
2023-04-16T02:57:31.491Z,95.76
2023-04-16T03:00:06.337Z,95.89
2023-04-16T03:02:39.324Z,95.89
2023-04-16T03:05:12.689Z,95.93
2023-04-16T03:07:45.514Z,96.21
2023-04-16T03:10:29.502Z,96.53
2023-04-16T03:13:02.640Z,96.26
2023-04-16T03:15:38.093Z,96.45
2023-04-16T03:18:13.006Z,96.41
2023-04-16T03:20:47.474Z,96.24
2023-04-16T03:23:40.486Z,96.06
2023-04-16T03:26:15.130Z,95.43
2023-04-16T03:28:48.208Z,95.40
2023-04-16T03:31:27.369Z,95.52
2023-04-16T03:34:03.949Z,95.57
2023-04-16T03:36:40.092Z,95.21
2023-04-16T03:39:22.492Z,94.94
2023-04-16T03:41:55.083Z,94.75
2023-04-16T03:44:28.006Z,95.06
2023-04-16T03:47:03.335Z,94.95
2023-04-16T03:49:36.175Z,94.93
2023-04-16T03:52:09.181Z,95.03
2023-04-16T03:54:42.032Z,94.85
2023-04-16T03:57:27.223Z,94.68
2023-04-16T04:00:03.746Z,94.42
2023-04-16T04:02:46.631Z,94.07
2023-04-16T04:05:23.182Z,93.88
2023-04-16T04:07:56.110Z,94.10
2023-04-16T04:10:28.607Z,94.44
2023-04-16T04:13:01.662Z,94.75
2023-04-16T04:15:34.480Z,95.26
2023-04-16T04:18:07.613Z,95.46
2023-04-16T04:20:43.373Z,95.99
2023-04-16T04:23:26.336Z,95.94
2023-04-16T04:25:59.588Z,96.07
2023-04-16T04:28:35.209Z,96.00
2023-04-16T04:31:10.674Z,95.62
2023-04-16T04:33:56.386Z,94.96
2023-04-16T04:36:33.927Z,94.23
2023-04-16T04:39:07.464Z,93.65
2023-04-16T04:41:43.987Z,93.53
2023-04-16T04:44:19.344Z,93.34
2023-04-16T04:46:52.341Z,93.18
2023-04-16T04:49:25.324Z,92.98
2023-04-16T04:51:58.485Z,92.93
2023-04-16T04:54:32.411Z,92.70
2023-04-16T04:57:05.148Z,92.76
2023-04-16T04:59:38.022Z,92.98
2023-04-16T05:02:10.861Z,92.75
2023-04-16T05:04:43.656Z,92.49
2023-04-16T05:07:16.438Z,92.34
2023-04-16T05:09:49.346Z,92.22
2023-04-16T05:12:21.787Z,92.69
2023-04-16T05:14:54.408Z,92.75
2023-04-16T05:17:27.044Z,92.59
2023-04-16T05:19:59.846Z,92.50
2023-04-16T05:22:32.141Z,91.11
2023-04-16T05:25:04.682Z,90.01
2023-04-16T05:27:38.539Z,90.31
2023-04-16T05:30:12.476Z,90.96
2023-04-16T05:32:45.239Z,91.03
2023-04-16T05:35:18.081Z,91.08
2023-04-16T05:37:50.815Z,91.21
2023-04-16T05:40:23.810Z,91.24
2023-04-16T05:42:56.473Z,91.17
2023-04-16T05:45:31.513Z,90.96
2023-04-16T05:48:04.240Z,90.52
2023-04-16T05:50:40.537Z,90.21
2023-04-16T05:53:14.359Z,90.00
2023-04-16T05:55:48.634Z,89.37
2023-04-16T05:58:21.151Z,89.24
2023-04-16T06:00:57.363Z,88.55
2023-04-16T06:03:30.519Z,88.75
2023-04-16T06:06:06.204Z,88.44
2023-04-16T06:08:59.105Z,88.15
2023-04-16T06:11:41.828Z,86.89
2023-04-16T06:14:16.245Z,86.48
2023-04-16T06:16:53.697Z,85.90
2023-04-16T06:19:26.129Z,84.55
2023-04-16T06:22:18.755Z,83.41
2023-04-16T06:25:12.472Z,82.38
2023-04-16T06:27:44.965Z,80.87
2023-04-16T06:30:19.921Z,80.35
2023-04-16T06:33:13.354Z,79.73
2023-04-16T06:35:45.809Z,79.88
2023-04-16T06:38:19.992Z,77.70
2023-04-16T06:41:12.798Z,77.98
2023-04-16T06:44:06.541Z,76.50
2023-04-16T06:46:49.176Z,75.34
2023-04-16T06:49:24.283Z,75.16
2023-04-16T06:52:17.316Z,75.03
2023-04-16T06:55:11.464Z,74.08
2023-04-16T06:57:44.390Z,73.65
2023-04-16T07:00:18.038Z,73.65
2023-04-16T07:02:51.442Z,72.95
2023-04-16T07:05:37.516Z,73.35
2023-04-16T07:08:13.924Z,72.47
2023-04-16T07:10:46.835Z,72.30
2023-04-16T07:13:27.806Z,71.08
2023-04-16T07:16:02.990Z,70.71
2023-04-16T07:18:58.347Z,69.93
2023-04-16T07:21:43.883Z,68.21
2023-04-16T07:24:39.690Z,67.07
2023-04-16T07:27:32.479Z,67.96
2023-04-16T07:30:05.399Z,68.61
2023-04-16T07:32:42.059Z,67.64
2023-04-16T07:35:14.838Z,65.88
2023-04-16T07:37:55.053Z,66.58
2023-04-16T07:40:27.984Z,66.21
2023-04-16T07:43:02.016Z,65.23
2023-04-16T07:45:34.842Z,64.76
2023-04-16T07:48:08.056Z,65.97
2023-04-16T07:50:43.639Z,66.19
2023-04-16T07:53:27.009Z,65.37
2023-04-16T07:56:11.146Z,64.82
2023-04-16T07:58:52.950Z,63.85
2023-04-16T08:01:25.602Z,63.69
2023-04-16T08:03:58.666Z,63.60
2023-04-16T08:06:31.628Z,62.98
2023-04-16T08:09:04.805Z,61.62
2023-04-16T08:11:40.095Z,60.53
2023-04-16T08:14:12.793Z,58.69
2023-04-16T08:16:45.005Z,60.79
2023-04-16T08:19:21.027Z,61.37
2023-04-16T08:21:57.427Z,61.03
2023-04-16T08:24:32.785Z,60.78
2023-04-16T08:27:17.908Z,59.83
2023-04-16T08:29:57.513Z,59.16
2023-04-16T08:32:33.608Z,59.69
2023-04-16T08:35:14.748Z,59.65
2023-04-16T08:37:47.402Z,57.87
2023-04-16T08:40:22.443Z,58.47
2023-04-16T08:43:17.269Z,58.01
2023-04-16T08:45:57.523Z,57.77
2023-04-16T08:48:34.236Z,55.86
2023-04-16T08:51:09.345Z,53.32
2023-04-16T08:53:50.646Z,54.87
2023-04-16T08:56:25.053Z,54.06
2023-04-16T08:59:02.335Z,54.01
2023-04-16T09:01:36.624Z,55.59
2023-04-16T09:04:10.435Z,54.74
2023-04-16T09:06:44.926Z,53.26
2023-04-16T09:09:22.139Z,54.53
2023-04-16T09:11:57.495Z,54.81
2023-04-16T09:14:30.465Z,54.58
2023-04-16T09:17:04.982Z,52.61
2023-04-16T09:19:37.514Z,54.25
2023-04-16T09:22:11.830Z,52.65
2023-04-16T09:24:46.782Z,52.51
2023-04-16T09:27:20.376Z,52.38
2023-04-16T09:29:53.040Z,52.41
2023-04-16T09:32:30.184Z,51.65
2023-04-16T09:35:05.981Z,49.68
2023-04-16T09:37:38.712Z,49.14
2023-04-16T09:40:17.318Z,50.21
2023-04-16T09:42:58.137Z,50.76
2023-04-16T09:45:49.048Z,51.14
2023-04-16T09:48:46.906Z,49.34
2023-04-16T09:51:22.484Z,50.28
2023-04-16T09:54:00.929Z,50.02
2023-04-16T09:56:45.716Z,47.81
2023-04-16T09:59:22.501Z,46.92
2023-04-16T10:02:15.567Z,46.73
2023-04-16T10:04:53.947Z,47.82
2023-04-16T10:07:31.700Z,48.19
2023-04-16T10:10:03.736Z,47.52
2023-04-16T10:12:39.689Z,45.49
2023-04-16T10:15:14.163Z,45.88
2023-04-16T10:17:46.918Z,45.54
2023-04-16T10:20:19.602Z,47.60
2023-04-16T10:22:52.249Z,48.39
2023-04-16T10:25:26.276Z,48.70
2023-04-16T10:28:10.709Z,49.05
2023-04-16T10:30:48.357Z,48.63
2023-04-16T10:33:23.497Z,49.45
2023-04-16T10:36:11.044Z,49.55
2023-04-16T10:38:54.814Z,48.85
2023-04-16T10:41:28.521Z,49.37
2023-04-16T10:44:10.777Z,50.74
2023-04-16T10:46:44.299Z,49.42
2023-04-16T10:49:19.281Z,49.47
2023-04-16T10:51:59.672Z,49.39
2023-04-16T10:54:36.749Z,48.92
2023-04-16T10:57:10.502Z,49.75
2023-04-16T10:59:53.320Z,48.38
2023-04-16T11:02:32.835Z,47.91
2023-04-16T11:05:06.708Z,47.92
2023-04-16T11:07:39.580Z,48.37
2023-04-16T11:10:16.048Z,49.59
2023-04-16T11:12:49.730Z,49.51
2023-04-16T11:15:30.937Z,49.39
2023-04-16T11:18:04.237Z,48.55
2023-04-16T11:20:44.420Z,48.01
2023-04-16T11:23:18.602Z,47.49
2023-04-16T11:25:57.441Z,47.46
2023-04-16T11:28:40.693Z,48.07
2023-04-16T11:31:21.235Z,48.32
2023-04-16T11:33:54.425Z,48.64
2023-04-16T11:36:27.924Z,47.65
2023-04-16T11:39:06.726Z,46.51
2023-04-16T11:41:46.041Z,46.17
2023-04-16T11:44:23.591Z,46.28
2023-04-16T11:46:56.695Z,47.06
2023-04-16T11:49:32.179Z,46.25
2023-04-16T11:52:05.087Z,47.02
2023-04-16T11:54:39.164Z,46.73
2023-04-16T11:57:15.316Z,46.58
2023-04-16T12:00:02.229Z,46.37
2023-04-16T12:02:54.953Z,45.54
2023-04-16T12:05:32.392Z,45.10
2023-04-16T12:08:06.991Z,44.31
2023-04-16T12:10:57.416Z,43.10
2023-04-16T12:13:30.553Z,42.82
2023-04-16T12:16:03.133Z,42.62
2023-04-16T12:18:36.037Z,42.82
2023-04-16T12:21:09.165Z,44.18
2023-04-16T12:23:42.708Z,44.92
2023-04-16T12:26:15.643Z,44.22
2023-04-16T12:29:22.701Z,43.15
2023-04-16T12:31:56.338Z,42.45
2023-04-16T12:34:53.226Z,42.16
2023-04-16T12:37:31.060Z,42.85
2023-04-16T12:40:07.404Z,42.07
2023-04-16T12:42:49.250Z,41.44
2023-04-16T12:45:22.303Z,42.96
2023-04-16T12:47:57.465Z,43.56
2023-04-16T12:50:32.650Z,45.01
2023-04-16T12:53:05.477Z,46.23
2023-04-16T12:55:38.258Z,45.98
2023-04-16T12:58:12.592Z,45.36
2023-04-16T13:00:47.201Z,44.99
2023-04-16T13:03:21.194Z,45.66
2023-04-16T13:05:53.820Z,45.29
2023-04-16T13:08:37.487Z,43.21
2023-04-16T13:11:14.282Z,42.35
2023-04-16T13:13:59.899Z,43.35
2023-04-16T13:16:52.483Z,43.01
2023-04-16T13:19:35.746Z,42.53
2023-04-16T13:22:21.181Z,42.40
2023-04-16T13:25:16.427Z,44.22
2023-04-16T13:27:48.956Z,45.28
2023-04-16T13:30:43.390Z,43.53
2023-04-16T13:33:36.660Z,42.81
2023-04-16T13:36:32.473Z,43.79
2023-04-16T13:39:11.495Z,43.65
2023-04-16T13:42:04.401Z,44.58
2023-04-16T13:44:54.233Z,44.61
2023-04-16T13:47:26.768Z,45.63
2023-04-16T13:50:20.851Z,45.22
2023-04-16T13:53:13.619Z,44.45
2023-04-16T13:56:11.154Z,45.11
2023-04-16T13:58:51.257Z,44.99
2023-04-16T14:01:23.901Z,44.70
2023-04-16T14:04:02.037Z,45.63
2023-04-16T14:06:54.901Z,44.21
2023-04-16T14:09:47.878Z,44.54
2023-04-16T14:12:41.002Z,44.65
2023-04-16T14:15:17.072Z,44.65
2023-04-16T14:17:54.438Z,45.07
2023-04-16T14:20:47.188Z,44.99
2023-04-16T14:23:28.372Z,45.43
2023-04-16T14:26:06.285Z,44.77
2023-04-16T14:28:58.985Z,44.06
2023-04-16T14:31:41.698Z,44.62
2023-04-16T14:34:18.367Z,44.75
2023-04-16T14:36:54.055Z,44.01
2023-04-16T14:39:47.134Z,44.54
2023-04-16T14:42:28.525Z,44.07
2023-04-16T14:45:03.977Z,42.79
2023-04-16T14:47:58.536Z,43.18
2023-04-16T14:50:51.790Z,43.13
2023-04-16T14:53:46.761Z,42.53
2023-04-16T14:56:39.451Z,41.50
2023-04-16T14:59:25.990Z,42.67
2023-04-16T15:02:10.795Z,43.29
2023-04-16T15:04:50.784Z,42.65
2023-04-16T15:07:44.719Z,43.78
2023-04-16T15:10:20.943Z,44.41
2023-04-16T15:13:13.811Z,45.06
2023-04-16T15:16:01.028Z,45.62
2023-04-16T15:18:53.995Z,46.07
2023-04-16T15:21:31.725Z,45.99
2023-04-16T15:24:22.982Z,46.26
2023-04-16T15:26:56.270Z,46.21
2023-04-16T15:29:38.028Z,46.25
2023-04-16T15:32:20.886Z,46.74
2023-04-16T15:34:56.518Z,47.60
2023-04-16T15:37:39.752Z,47.96
2023-04-16T15:40:32.958Z,47.28
2023-04-16T15:43:09.115Z,47.31
2023-04-16T15:46:02.404Z,47.33
2023-04-16T15:48:34.872Z,47.90
2023-04-16T15:51:09.087Z,48.68
2023-04-16T15:53:52.019Z,48.93
2023-04-16T15:56:28.650Z,48.39
2023-04-16T15:59:04.511Z,48.60
2023-04-16T16:01:57.715Z,49.39
2023-04-16T16:04:49.884Z,49.17
2023-04-16T16:07:36.793Z,48.49
2023-04-16T16:10:29.825Z,49.19
2023-04-16T16:13:22.667Z,50.05
2023-04-16T16:16:08.846Z,51.01
2023-04-16T16:18:42.198Z,52.32
2023-04-16T16:21:35.070Z,53.50
2023-04-16T16:24:24.506Z,54.91
2023-04-16T16:27:18.574Z,55.65
2023-04-16T16:29:54.489Z,56.10
2023-04-16T16:32:47.352Z,56.93
2023-04-16T16:35:32.578Z,57.40
2023-04-16T16:38:07.790Z,57.97
2023-04-16T16:40:43.783Z,58.17
2023-04-16T16:43:18.668Z,58.58
2023-04-16T16:45:51.151Z,58.69
2023-04-16T16:48:24.030Z,59.06
2023-04-16T16:50:56.536Z,59.22
2023-04-16T16:53:29.445Z,59.23
2023-04-16T16:56:02.112Z,59.60
2023-04-16T16:58:35.142Z,59.86
2023-04-16T17:01:07.860Z,60.14
2023-04-16T17:03:40.620Z,60.37
2023-04-16T17:06:13.397Z,60.95
2023-04-16T17:08:47.621Z,61.20
2023-04-16T17:11:20.124Z,61.62
2023-04-16T17:13:52.584Z,61.88
2023-04-16T17:16:34.715Z,62.00
2023-04-16T17:19:20.890Z,62.13
2023-04-16T17:21:55.117Z,63.16
2023-04-16T17:24:27.630Z,63.96
2023-04-16T17:27:00.203Z,64.48
2023-04-16T17:29:35.619Z,65.11
2023-04-16T17:32:10.694Z,65.78
2023-04-16T17:34:44.132Z,66.11
2023-04-16T17:37:16.581Z,66.80
2023-04-16T17:40:12.887Z,67.59
2023-04-16T17:43:06.116Z,68.27
2023-04-16T17:45:59.630Z,68.88
2023-04-16T17:48:52.392Z,69.30
2023-04-16T17:51:47.191Z,69.23
2023-04-16T17:54:29.691Z,69.64
2023-04-16T17:57:05.220Z,70.07
2023-04-16T17:59:41.101Z,70.53
2023-04-16T18:02:14.122Z,70.62
2023-04-16T18:04:56.288Z,70.94
2023-04-16T18:07:49.429Z,71.48
2023-04-16T18:10:31.543Z,71.67
2023-04-16T18:13:06.833Z,72.23
2023-04-16T18:15:40.234Z,72.84
2023-04-16T18:18:33.865Z,73.36
2023-04-16T18:21:19.030Z,73.60
2023-04-16T18:23:51.911Z,73.70
2023-04-16T18:26:40.819Z,74.18
2023-04-16T18:29:14.206Z,74.20
2023-04-16T18:31:47.416Z,74.17
2023-04-16T18:34:20.869Z,74.14
2023-04-16T18:36:55.677Z,74.11
2023-04-16T18:39:28.464Z,74.34
2023-04-16T18:42:01.519Z,74.82
2023-04-16T18:44:34.089Z,75.28
2023-04-16T18:47:07.253Z,75.78
2023-04-16T18:49:41.420Z,76.37
2023-04-16T18:52:14.087Z,77.09
2023-04-16T18:54:46.895Z,77.64
2023-04-16T18:57:19.320Z,78.07
2023-04-16T18:59:51.717Z,78.75
2023-04-16T19:02:24.660Z,79.54
2023-04-16T19:04:57.716Z,80.05
2023-04-16T19:07:30.766Z,80.33
2023-04-16T19:10:03.597Z,80.37
2023-04-16T19:12:39.360Z,80.24
2023-04-16T19:15:14.963Z,80.13
2023-04-16T19:17:47.826Z,80.59
2023-04-16T19:20:23.479Z,80.92
2023-04-16T19:22:56.571Z,80.99
2023-04-16T19:25:31.560Z,81.24
2023-04-16T19:28:04.242Z,81.23
2023-04-16T19:30:57.281Z,81.07
2023-04-16T19:33:30.039Z,81.17
2023-04-16T19:36:04.993Z,81.31
2023-04-16T19:38:39.127Z,81.56
2023-04-16T19:41:11.781Z,81.62
2023-04-16T19:43:44.754Z,81.57
2023-04-16T19:46:18.126Z,81.38
2023-04-16T19:48:50.621Z,81.23
2023-04-16T19:51:23.213Z,80.97
2023-04-16T19:53:58.940Z,80.71
2023-04-16T19:56:31.421Z,80.38
2023-04-16T19:59:07.026Z,80.17
2023-04-16T20:01:40.847Z,80.45
2023-04-16T20:04:13.444Z,80.50
2023-04-16T20:06:46.180Z,80.70
2023-04-16T20:09:21.739Z,80.90
2023-04-16T20:11:54.241Z,80.96
2023-04-16T20:14:26.721Z,81.01
2023-04-16T20:17:01.957Z,80.94
2023-04-16T20:19:38.397Z,81.35
2023-04-16T20:22:10.892Z,81.67
2023-04-16T20:24:47.858Z,81.93
2023-04-16T20:27:21.190Z,82.17
2023-04-16T20:29:54.104Z,82.51
2023-04-16T20:32:28.046Z,82.49
2023-04-16T20:35:02.086Z,82.49
2023-04-16T20:37:38.747Z,82.50
2023-04-16T20:40:16.550Z,82.30
2023-04-16T20:42:52.207Z,82.20
2023-04-16T20:45:25.526Z,81.88
2023-04-16T20:47:58.000Z,81.63
2023-04-16T20:50:30.568Z,81.56
2023-04-16T20:53:06.090Z,81.60
2023-04-16T20:55:41.034Z,81.47
2023-04-16T20:58:13.702Z,81.02
2023-04-16T21:00:52.426Z,80.91
2023-04-16T21:03:25.207Z,81.15
2023-04-16T21:05:59.471Z,81.23
2023-04-16T21:08:32.784Z,81.15
2023-04-16T21:11:05.732Z,81.29
2023-04-16T21:13:38.075Z,81.41
2023-04-16T21:16:12.548Z,81.37
2023-04-16T21:18:47.360Z,81.55
2023-04-16T21:21:20.225Z,82.21
2023-04-16T21:23:53.046Z,82.78
2023-04-16T21:26:25.611Z,83.08
2023-04-16T21:28:58.094Z,83.70
2023-04-16T21:31:32.863Z,83.93
2023-04-16T21:34:08.124Z,83.97
2023-04-16T21:36:40.825Z,83.88
2023-04-16T21:39:14.302Z,83.95
2023-04-16T21:41:50.942Z,83.76
2023-04-16T21:44:23.763Z,83.92
2023-04-16T21:46:56.445Z,83.72
2023-04-16T21:49:32.223Z,83.68
2023-04-16T21:52:05.212Z,82.65
2023-04-16T21:54:38.677Z,82.51
2023-04-16T21:57:11.883Z,82.78
2023-04-16T21:59:44.391Z,82.90
2023-04-16T22:02:17.067Z,83.03
2023-04-16T22:04:50.472Z,83.38
2023-04-16T22:07:24.107Z,83.46
2023-04-16T22:09:56.845Z,83.62
2023-04-16T22:12:29.410Z,83.69
2023-04-16T22:15:03.123Z,83.51
2023-04-16T22:17:36.439Z,83.37
2023-04-16T22:20:13.387Z,83.36
2023-04-16T22:22:47.927Z,83.37
2023-04-16T22:25:20.465Z,83.36
2023-04-16T22:27:53.874Z,83.39
2023-04-16T22:30:29.840Z,83.55
2023-04-16T22:33:21.338Z,83.57
2023-04-16T22:36:14.189Z,83.49
2023-04-16T22:39:01.114Z,83.45
2023-04-16T22:41:53.829Z,83.62
2023-04-16T22:44:45.513Z,83.58
2023-04-16T22:47:38.402Z,83.85
2023-04-16T22:50:32.483Z,83.85
2023-04-16T22:53:25.583Z,84.23
2023-04-16T22:56:18.599Z,84.20
2023-04-16T22:59:11.455Z,84.60
2023-04-16T23:01:47.400Z,84.81
2023-04-16T23:04:38.781Z,84.93
2023-04-16T23:07:31.775Z,85.18
2023-04-16T23:10:24.554Z,85.54
2023-04-16T23:13:17.686Z,86.04
2023-04-16T23:16:10.878Z,86.32
2023-04-16T23:19:03.487Z,86.75
2023-04-16T23:21:56.269Z,87.02
2023-04-16T23:24:49.134Z,87.44
2023-04-16T23:27:41.988Z,87.52
2023-04-16T23:30:26.029Z,87.47
2023-04-16T23:33:18.909Z,87.62
2023-04-16T23:36:01.707Z,87.57
2023-04-16T23:38:54.367Z,87.43
2023-04-16T23:41:47.200Z,87.20
2023-04-16T23:44:39.825Z,87.11
2023-04-16T23:47:32.808Z,86.90
2023-04-16T23:50:25.762Z,86.03
2023-04-16T23:53:18.569Z,86.29
2023-04-16T23:56:04.169Z,86.23
2023-04-16T23:58:46.687Z,86.10
